Time;durP1;ratioP1;P1;durP2;ratioP2;P2;SDS_P1;SDS_P2;PMS_P1;PMS_P2;Temp;Humidity;BMP_temperature;BMP_pressure;BME280_temperature;BME280_humidity;BME280_pressure;Samples;Min_cycle;Max_cycle;Signal;HPM_P1;HPM_P2
2022/04/30 00:02:11;;;;;;;13.10;7.95;;;;;;;9.45;62.38;100311.36;1756846;81;21048;-76
2022/04/30 00:04:41;;;;;;;15.60;8.38;;;;;;;9.38;62.55;100313.64;1725615;82;21031;-75
2022/04/30 00:07:08;;;;;;;13.58;8.23;;;;;;;9.35;63.12;100316.35;1756859;81;21176;-75
2022/04/30 00:09:35;;;;;;;16.07;7.62;;;;;;;9.30;63.57;100312.02;1756852;81;21137;-75
2022/04/30 00:12:04;;;;;;;12.37;7.72;;;;;;;9.27;63.56;100313.38;1726871;83;21093;-75
2022/04/30 00:14:30;;;;;;;10.80;7.33;;;;;;;9.28;64.03;100316.90;1756892;81;21006;-74
2022/04/30 00:16:57;;;;;;;11.78;7.17;;;;;;;9.27;64.49;100312.52;1725620;83;21050;-74
2022/04/30 00:19:24;;;;;;;12.30;8.15;;;;;;;9.23;64.94;100307.77;1748111;81;21004;-75
2022/04/30 00:21:51;;;;;;;15.00;8.00;;;;;;;9.22;65.21;100299.46;1750591;82;21052;-75
2022/04/30 00:24:17;;;;;;;11.22;7.72;;;;;;;9.22;65.35;100306.03;1750459;82;21732;-74
2022/04/30 00:26:44;;;;;;;12.00;7.47;;;;;;;9.24;65.34;100309.48;1750558;82;22060;-74
2022/04/30 00:29:11;;;;;;;11.08;6.90;;;;;;;9.26;65.47;100301.59;1750688;82;21581;-75
2022/04/30 00:31:41;;;;;;;11.10;7.05;;;;;;;9.26;65.59;100294.60;1750442;82;21067;-75
2022/04/30 00:34:08;;;;;;;9.53;6.65;;;;;;;9.29;65.64;100297.14;1741529;81;22485;-74
2022/04/30 00:36:37;;;;;;;10.48;5.95;;;;;;;9.28;65.55;100295.44;1698535;84;21014;-75
2022/04/30 00:39:03;;;;;;;9.08;6.25;;;;;;;9.32;65.65;100294.08;1699051;84;21097;-75
2022/04/30 00:41:32;;;;;;;11.08;6.95;;;;;;;9.35;65.58;100288.77;1698685;84;21013;-75
2022/04/30 00:43:59;;;;;;;7.25;5.33;;;;;;;9.35;65.55;100285.69;1698746;84;21018;-75
2022/04/30 00:46:26;;;;;;;8.20;5.17;;;;;;;9.37;65.01;100287.84;1698734;83;21184;-74
2022/04/30 00:48:53;;;;;;;5.87;4.80;;;;;;;9.40;64.71;100278.59;1698883;84;21159;-75
2022/04/30 00:51:22;;;;;;;7.70;4.87;;;;;;;9.44;64.48;100276.78;1698643;84;21093;-75
2022/04/30 00:53:51;;;;;;;9.35;4.92;;;;;;;9.47;64.08;100278.90;1698632;84;21073;-75
2022/04/30 00:56:25;;;;;;;10.55;5.20;;;;;;;9.50;63.83;100276.68;1698886;84;21038;-74
2022/04/30 00:58:53;;;;;;;6.55;4.58;;;;;;;9.54;63.49;100274.41;1699059;83;21100;-75
2022/04/30 01:01:20;;;;;;;6.17;4.47;;;;;;;9.58;63.63;100276.52;1696106;84;21501;-75
2022/04/30 01:04:07;;;;;;;8.55;4.10;;;;;;;9.55;63.61;100270.89;1698740;84;21644;-74
2022/04/30 01:07:00;;;;;;;5.78;4.50;;;;;;;9.58;63.76;100268.22;1698889;84;21069;-75
2022/04/30 01:09:29;;;;;;;8.58;5.35;;;;;;;9.60;64.09;100265.53;1698728;84;20986;-75
2022/04/30 01:12:03;;;;;;;9.05;4.85;;;;;;;9.61;65.19;100266.81;1698613;84;21042;-75
2022/04/30 01:14:31;;;;;;;5.45;4.58;;;;;;;9.60;65.78;100259.84;1698601;84;21807;-75
2022/04/30 01:16:59;;;;;;;10.25;5.05;;;;;;;9.58;66.15;100264.27;1699024;84;21006;-75
2022/04/30 01:19:32;;;;;;;6.65;4.53;;;;;;;9.55;66.66;100262.12;1698614;84;21065;-75
2022/04/30 01:22:01;;;;;;;6.67;4.87;;;;;;;9.54;66.98;100259.95;1698103;84;21026;-75
2022/04/30 01:24:30;;;;;;;8.75;5.37;;;;;;;9.53;66.50;100262.61;1699034;84;21100;-75
2022/04/30 01:26:58;;;;;;;8.15;5.25;;;;;;;9.53;66.98;100262.18;1698708;84;21127;-75
2022/04/30 01:29:25;;;;;;;7.72;5.42;;;;;;;9.51;67.38;100265.26;1698496;84;21514;-75
2022/04/30 01:37:23;;;;;;;7.40;5.03;;;;;;;9.44;68.53;100263.64;1698702;84;21002;-74
2022/04/30 01:39:58;;;;;;;5.90;4.87;;;;;;;9.40;68.72;100264.61;1699119;84;21070;-74
2022/04/30 01:42:35;;;;;;;8.30;5.05;;;;;;;9.35;69.02;100264.69;1698426;84;21137;-75
2022/04/30 01:45:04;;;;;;;7.08;4.78;;;;;;;9.35;69.36;100263.83;1698440;84;21588;-74
2022/04/30 01:47:34;;;;;;;7.05;4.53;;;;;;;9.34;69.36;100257.69;1693599;84;21046;-74
2022/04/30 01:50:01;;;;;;;9.05;4.80;;;;;;;9.34;69.33;100255.52;1683801;85;21065;-74
2022/04/30 01:52:29;;;;;;;6.37;5.17;;;;;;;9.36;69.35;100252.41;1683977;85;21930;-74
2022/04/30 01:54:58;;;;;;;8.63;5.05;;;;;;;9.36;69.54;100249.78;1683694;85;21015;-74
2022/04/30 01:57:30;;;;;;;6.53;4.97;;;;;;;9.36;69.76;100249.78;1683779;85;21022;-74
2022/04/30 01:59:59;;;;;;;7.17;5.00;;;;;;;9.35;70.28;100246.30;1683531;85;21093;-74
2022/04/30 02:02:30;;;;;;;8.60;5.28;;;;;;;9.33;70.53;100247.20;1683567;85;21085;-74
2022/04/30 02:04:59;;;;;;;9.93;4.80;;;;;;;9.30;70.30;100249.00;1684215;85;21123;-74
2022/04/30 02:07:27;;;;;;;5.80;4.58;;;;;;;9.29;69.95;100252.50;1683761;85;21161;-74
2022/04/30 02:09:53;;;;;;;7.70;5.78;;;;;;;9.28;69.78;100244.23;1684216;85;21595;-75
2022/04/30 02:12:20;;;;;;;8.45;4.78;;;;;;;9.29;69.74;100243.31;1683754;85;21094;-75
2022/04/30 02:14:51;;;;;;;13.88;5.05;;;;;;;9.30;70.35;100249.00;1689834;84;21080;-74
2022/04/30 02:17:20;;;;;;;7.87;5.30;;;;;;;9.31;70.89;100243.28;1698050;84;21761;-75
2022/04/30 02:22:37;;;;;;;8.10;6.05;;;;;;;9.29;71.20;100241.14;1697809;84;21752;-75
2022/04/30 02:25:01;;;;;;;8.35;5.92;;;;;;;9.28;71.38;100242.91;1697364;84;21049;-75
2022/04/30 02:27:28;;;;;;;8.30;5.78;;;;;;;9.27;71.45;100241.63;1697726;84;21100;-74
2022/04/30 02:29:54;;;;;;;6.03;5.28;;;;;;;9.24;71.76;100246.47;1693375;84;21112;-74
2022/04/30 02:32:21;;;;;;;8.40;5.58;;;;;;;9.20;71.59;100243.48;1691950;84;21139;-75
2022/04/30 02:34:49;;;;;;;7.15;5.22;;;;;;;9.15;71.16;100244.02;1692439;84;21032;-75
2022/04/30 02:37:16;;;;;;;8.23;4.80;;;;;;;9.11;70.75;100246.25;1692426;84;21225;-75
2022/04/30 02:39:45;;;;;;;10.25;5.53;;;;;;;9.06;70.73;100248.09;1692419;84;21090;-75
2022/04/30 02:42:13;;;;;;;5.75;5.05;;;;;;;9.03;70.39;100250.34;1692318;84;21155;-75
2022/04/30 02:44:41;;;;;;;7.28;5.33;;;;;;;9.02;70.55;100254.30;1692045;84;21504;-75
2022/04/30 02:47:08;;;;;;;11.50;5.72;;;;;;;9.00;70.45;100256.95;1692717;83;21579;-75
2022/04/30 02:49:38;;;;;;;18.80;6.90;;;;;;;9.00;70.31;100261.34;1743592;82;21075;-76
2022/04/30 02:52:04;;;;;;;12.78;7.78;;;;;;;8.98;70.73;100260.47;1743616;82;21074;-75
2022/04/30 02:54:34;;;;;;;17.42;8.53;;;;;;;8.96;70.90;100258.33;1722882;83;21067;-75
2022/04/30 02:57:01;;;;;;;14.38;9.10;;;;;;;8.93;71.22;100269.76;1723051;82;21071;-75
2022/04/30 03:02:13;;;;;;;12.55;8.88;;;;;;;8.86;71.90;100266.78;1722719;83;21517;-75
2022/04/30 03:04:43;;;;;;;13.85;9.03;;;;;;;8.84;72.14;100273.40;1721375;83;21572;-75
2022/04/30 03:07:12;;;;;;;14.70;8.40;;;;;;;8.82;72.10;100265.97;1722939;83;21584;-75
2022/04/30 03:09:39;;;;;;;19.40;8.65;;;;;;;8.85;72.23;100272.48;1722553;82;21125;-75
2022/04/30 03:12:08;;;;;;;23.00;9.98;;;;;;;8.88;72.33;100275.52;1722823;82;21491;-75
2022/04/30 03:14:35;;;;;;;26.35;12.15;;;;;;;8.88;72.53;100275.07;1722935;83;21015;-75
2022/04/30 03:22:33;;;;;;;;;;;;;;;8.86;72.48;100280.80;1684915;83;21538;-75
2022/04/30 03:25:00;;;;;;;16.48;8.33;;;;;;;8.85;72.10;100277.73;1723030;83;20198;-74
2022/04/30 03:27:26;;;;;;;15.53;7.67;;;;;;;8.87;71.83;100287.75;1722864;83;20991;-75
2022/04/30 03:29:53;;;;;;;10.23;6.70;;;;;;;8.89;71.42;100279.86;1722780;83;21109;-75
2022/04/30 03:32:20;;;;;;;14.10;6.60;;;;;;;8.90;71.18;100279.84;1722616;83;21144;-75
2022/04/30 03:34:47;;;;;;;11.40;6.42;;;;;;;8.92;70.70;100284.61;1722793;83;21026;-75
2022/04/30 03:37:14;;;;;;;9.93;5.70;;;;;;;8.96;69.81;100281.95;1723184;83;21062;-74
2022/04/30 03:39:40;;;;;;;11.65;5.60;;;;;;;8.98;69.46;100280.16;1722616;83;21090;-75
2022/04/30 03:42:07;;;;;;;11.00;5.85;;;;;;;9.01;69.11;100274.87;1722529;82;21055;-75
2022/04/30 03:44:35;;;;;;;10.32;5.67;;;;;;;9.04;69.08;100265.18;1722840;83;21490;-74
2022/04/30 03:47:02;;;;;;;11.48;5.50;;;;;;;9.08;69.08;100268.65;1722719;83;21042;-74
2022/04/30 03:49:29;;;;;;;8.83;4.80;;;;;;;9.12;68.95;100271.63;1710650;83;22271;-75
2022/04/30 03:51:55;;;;;;;9.28;4.83;;;;;;;9.16;68.84;100273.30;1746129;82;21098;-75
2022/04/30 03:54:22;;;;;;;7.12;4.70;;;;;;;9.18;68.70;100277.21;1715074;83;21060;-74
2022/04/30 03:56:48;;;;;;;5.75;4.55;;;;;;;9.16;69.04;100280.31;1727248;83;21597;-75
2022/04/30 03:59:15;;;;;;;10.35;6.25;;;;;;;9.11;68.86;100285.21;1726898;83;21034;-75
2022/04/30 04:01:42;;;;;;;13.83;6.47;;;;;;;9.09;68.95;100276.92;1726652;83;21066;-75
2022/04/30 04:04:10;;;;;;;12.10;7.50;;;;;;;9.08;69.23;100280.46;1726971;83;21030;-75
2022/04/30 04:06:36;;;;;;;11.10;6.40;;;;;;;9.08;69.33;100284.41;1730873;82;21153;-75
2022/04/30 04:09:03;;;;;;;10.98;6.00;;;;;;;9.07;68.69;100283.97;1749987;82;21148;-75
2022/04/30 04:11:31;;;;;;;5.95;4.12;;;;;;;9.09;68.40;100290.05;1749918;82;21117;-75
2022/04/30 04:19:30;;;;;;;3.02;2.75;;;;;;;9.08;66.31;100287.02;1750322;82;22293;-75
2022/04/30 04:21:56;;;;;;;3.75;2.87;;;;;;;9.06;66.28;100292.72;1749740;81;21124;-75
2022/04/30 04:27:08;;;;;;;6.80;2.60;;;;;;;9.05;65.84;100293.63;1750106;82;26530;-74
2022/04/30 04:29:35;;;;;;;4.05;2.60;;;;;;;9.08;65.91;100297.52;1749735;82;21094;-74
2022/04/30 04:32:02;;;;;;;4.60;2.12;;;;;;;9.06;65.48;100292.72;1749951;82;21047;-73
2022/04/30 04:34:29;;;;;;;3.05;1.80;;;;;;;9.03;64.81;100284.92;1749587;82;21800;-80
2022/04/30 04:36:56;;;;;;;1.80;1.70;;;;;;;9.05;64.86;100283.12;1753375;81;21077;-80
2022/04/30 04:39:22;;;;;;;1.95;1.60;;;;;;;9.09;64.42;100283.48;1754585;81;21054;-79
2022/04/30 04:41:49;;;;;;;1.80;1.50;;;;;;;9.13;64.69;100280.36;1716594;83;21005;-79
2022/04/30 04:44:15;;;;;;;1.77;1.67;;;;;;;9.17;62.43;100267.16;1754502;81;21090;-74
2022/04/30 04:46:43;;;;;;;2.98;1.77;;;;;;;9.26;61.13;100262.20;1754567;81;21450;-73
2022/04/30 04:49:10;;;;;;;2.05;1.85;;;;;;;9.34;60.95;100264.70;1721104;82;21055;-74
2022/04/30 04:51:37;;;;;;;1.70;1.60;;;;;;;9.40;59.39;100269.86;1756981;81;21022;-73
2022/04/30 04:54:04;;;;;;;3.17;1.80;;;;;;;9.48;59.43;100278.44;1756945;81;21105;-74
2022/04/30 04:56:31;;;;;;;2.15;1.92;;;;;;;9.52;61.18;100276.20;1725075;83;21138;-74
2022/04/30 04:58:58;;;;;;;2.70;1.87;;;;;;;9.52;62.51;100278.83;1757063;81;21536;-74
2022/04/30 05:01:25;;;;;;;1.95;1.85;;;;;;;9.53;63.24;100289.77;1756570;81;21073;-74
2022/04/30 05:03:52;;;;;;;2.47;2.27;;;;;;;9.54;64.05;100286.22;1725794;82;21021;-74
2022/04/30 05:06:18;;;;;;;2.20;2.10;;;;;;;9.55;65.32;100291.91;1756566;81;21319;-73
2022/04/30 05:08:47;;;;;;;2.20;2.00;;;;;;;9.59;65.92;100297.52;1757129;81;21105;-73
2022/04/30 05:11:13;;;;;;;4.53;2.98;;;;;;;9.59;66.52;100308.48;1725052;82;21139;-74
2022/04/30 05:13:40;;;;;;;14.28;7.50;;;;;;;9.54;67.19;100303.30;1756843;81;21144;-74
2022/04/30 05:16:08;;;;;;;12.35;7.90;;;;;;;9.52;67.03;100305.55;1757125;81;21577;-73
2022/04/30 05:18:34;;;;;;;12.35;7.53;;;;;;;9.51;66.24;100302.03;1725742;83;21528;-74
2022/04/30 05:21:01;;;;;;;11.45;7.67;;;;;;;9.53;66.05;100308.16;1757164;81;21030;-74
2022/04/30 05:23:27;;;;;;;11.05;7.80;;;;;;;9.56;65.67;100305.45;1757226;81;21197;-73
2022/04/30 05:25:54;;;;;;;13.75;8.15;;;;;;;9.61;65.73;100308.86;1725740;83;21074;-74
2022/04/30 05:28:20;;;;;;;11.35;7.72;;;;;;;9.68;66.23;100303.05;1756979;81;21077;-74
2022/04/30 05:30:47;;;;;;;11.83;7.70;;;;;;;9.74;66.53;100308.66;1756663;81;21077;-73
2022/04/30 05:33:13;;;;;;;13.70;7.62;;;;;;;9.79;66.83;100304.17;1725645;82;21522;-74
2022/04/30 05:35:41;;;;;;;14.65;7.42;;;;;;;9.86;66.30;100305.78;1725210;83;21182;-74
2022/04/30 05:38:07;;;;;;;9.68;7.28;;;;;;;9.93;66.52;100302.14;1756482;81;21003;-74
2022/04/30 05:40:34;;;;;;;15.03;6.83;;;;;;;10.00;66.60;100302.88;1756799;81;21188;-74
2022/04/30 05:43:00;;;;;;;23.92;6.33;;;;;;;10.06;66.17;100299.28;1725191;83;21056;-74
2022/04/30 05:45:27;;;;;;;24.43;6.42;;;;;;;10.13;66.14;100298.26;1756875;81;21042;-73
2022/04/30 05:47:54;;;;;;;13.30;5.60;;;;;;;10.20;65.29;100299.43;1756774;81;21108;-74
2022/04/30 05:50:20;;;;;;;8.05;4.65;;;;;;;10.27;64.78;100297.54;1725482;83;21059;-74
2022/04/30 05:52:47;;;;;;;9.18;5.28;;;;;;;10.34;64.11;100293.02;1756634;81;21066;-74
2022/04/30 05:55:13;;;;;;;7.80;5.40;;;;;;;10.41;64.53;100295.96;1756645;81;21120;-74
2022/04/30 05:57:41;;;;;;;7.50;4.50;;;;;;;10.48;64.50;100288.80;1725667;82;21075;-73
2022/04/30 06:00:09;;;;;;;9.65;4.75;;;;;;;10.57;64.13;100300.00;1756689;81;22090;-74
2022/04/30 06:02:37;;;;;;;15.53;4.47;;;;;;;10.65;63.90;100298.49;1754347;81;21494;-74
2022/04/30 06:05:06;;;;;;;24.92;3.95;;;;;;;10.73;63.27;100300.50;1752535;81;21105;-74
2022/04/30 06:07:33;;;;;;;12.13;4.30;;;;;;;10.81;62.42;100299.45;1752473;81;21058;-74
2022/04/30 06:10:00;;;;;;;6.58;3.92;;;;;;;10.90;62.14;100299.26;1752540;81;21123;-74
2022/04/30 06:12:29;;;;;;;5.25;3.98;;;;;;;11.01;61.22;100301.19;1752649;81;21545;-75
2022/04/30 06:14:56;;;;;;;4.33;3.10;;;;;;;11.08;60.04;100301.45;1752472;81;21030;-74
2022/04/30 06:17:22;;;;;;;5.15;3.25;;;;;;;11.15;59.54;100300.39;1752498;81;21041;-74
2022/04/30 06:19:49;;;;;;;3.95;3.25;;;;;;;11.24;59.22;100301.92;1752491;81;21108;-74
2022/04/30 06:22:15;;;;;;;6.97;3.47;;;;;;;11.32;59.22;100303.06;1752802;81;21128;-75
2022/04/30 06:24:41;;;;;;;10.53;3.27;;;;;;;11.39;59.33;100298.05;1752424;81;21138;-74
2022/04/30 06:27:09;;;;;;;4.05;2.95;;;;;;;11.46;58.74;100300.08;1752239;81;21109;-75
2022/04/30 06:29:35;;;;;;;8.43;3.42;;;;;;;11.49;57.29;100300.86;1752534;81;21062;-75
2022/04/30 06:32:02;;;;;;;2.90;2.67;;;;;;;11.51;57.36;100300.36;1752250;81;21022;-74
2022/04/30 06:34:29;;;;;;;5.85;2.65;;;;;;;11.56;57.34;100298.07;1760679;80;21054;-74
2022/04/30 06:36:56;;;;;;;7.00;2.85;;;;;;;11.59;57.16;100295.36;1788262;80;21212;-74
2022/04/30 06:39:22;;;;;;;4.53;2.47;;;;;;;11.60;56.74;100290.05;1788129;80;21671;-75
2022/04/30 06:41:49;;;;;;;2.90;2.40;;;;;;;11.63;57.37;100291.73;1787865;80;21112;-74
2022/04/30 06:44:15;;;;;;;4.45;2.72;;;;;;;11.68;57.25;100292.03;1788414;80;21072;-75
2022/04/30 06:46:44;;;;;;;6.50;2.42;;;;;;;11.76;57.24;100298.87;1787958;80;21659;-74
2022/04/30 06:49:10;;;;;;;10.08;2.62;;;;;;;11.85;57.16;100291.58;1788021;80;21133;-74
2022/04/30 06:51:37;;;;;;;4.80;2.50;;;;;;;12.00;57.50;100300.88;1787891;80;21149;-74
2022/04/30 06:57:07;;;;;;;5.72;2.60;;;;;;;12.21;54.44;100304.66;1788023;80;21018;-74
2022/04/30 06:59:40;;;;;;;5.92;2.87;;;;;;;12.29;54.84;100302.25;1787879;80;21108;-75
2022/04/30 07:02:12;;;;;;;5.08;2.90;;;;;;;12.34;54.53;100304.30;1788282;80;21867;-75
2022/04/30 07:04:42;;;;;;;10.00;2.60;;;;;;;12.34;53.28;100305.61;1787931;80;21066;-75
2022/04/30 07:07:09;;;;;;;7.42;3.00;;;;;;;12.35;53.44;100300.76;1788316;80;21026;-75
2022/04/30 07:09:38;;;;;;;7.20;3.55;;;;;;;12.39;53.57;100296.67;1788321;80;21160;-75
2022/04/30 07:12:09;;;;;;;8.33;3.47;;;;;;;12.49;53.47;100299.91;1787940;80;21017;-75
2022/04/30 07:14:40;;;;;;;3.87;2.60;;;;;;;12.59;52.36;100301.35;1788098;80;21516;-74
2022/04/30 07:17:09;;;;;;;3.50;2.30;;;;;;;12.73;51.55;100304.89;1788147;80;21509;-74
2022/04/30 07:19:36;;;;;;;6.70;2.20;;;;;;;12.83;51.33;100303.69;1788336;80;22336;-74
2022/04/30 07:22:04;;;;;;;2.85;2.40;;;;;;;12.94;50.90;100303.33;1788010;80;21077;-73
2022/04/30 07:24:32;;;;;;;5.10;2.42;;;;;;;13.05;50.79;100304.80;1787998;80;21619;-74
2022/04/30 07:26:58;;;;;;;2.35;1.95;;;;;;;13.20;50.55;100302.97;1788185;80;22211;-74
2022/04/30 07:29:25;;;;;;;6.90;2.50;;;;;;;13.29;48.49;100300.47;1787778;80;21577;-74
2022/04/30 07:31:51;;;;;;;2.10;1.90;;;;;;;13.38;50.47;100303.71;1787768;80;21073;-75
2022/04/30 07:34:18;;;;;;;3.58;2.27;;;;;;;13.53;50.14;100306.73;1787981;80;21046;-75
2022/04/30 07:36:44;;;;;;;4.60;2.00;;;;;;;13.67;49.16;100300.53;1788127;80;21127;-74
2022/04/30 07:39:11;;;;;;;3.20;2.33;;;;;;;13.78;48.33;100293.52;1788099;80;21224;-75
2022/04/30 07:41:38;;;;;;;3.65;2.20;;;;;;;13.80;45.83;100289.50;1787488;80;21081;-74
2022/04/30 07:44:04;;;;;;;4.20;2.05;;;;;;;13.77;46.88;100289.61;1788211;80;21005;-74
2022/04/30 07:46:31;;;;;;;6.47;2.55;;;;;;;13.82;46.83;100291.63;1787796;80;21057;-75
2022/04/30 07:48:57;;;;;;;2.98;2.40;;;;;;;13.86;45.97;100290.63;1787966;80;21124;-76
2022/04/30 07:51:34;;;;;;;3.00;2.20;;;;;;;13.93;46.92;100282.86;1788480;80;21612;-75
2022/04/30 07:54:02;;;;;;;4.95;2.20;;;;;;;14.00;45.94;100280.38;1788912;80;21509;-74
2022/04/30 07:56:28;;;;;;;3.75;2.30;;;;;;;14.05;46.21;100278.43;1788847;80;21010;-74
2022/04/30 07:58:55;;;;;;;2.22;1.70;;;;;;;14.11;45.78;100283.51;1788875;80;22198;-75
2022/04/30 08:01:22;;;;;;;2.47;2.22;;;;;;;14.19;45.43;100281.03;1788801;80;21576;-75
2022/04/30 08:03:48;;;;;;;10.60;2.95;;;;;;;14.29;45.29;100267.87;1789151;80;21530;-74
2022/04/30 08:06:15;;;;;;;3.47;2.22;;;;;;;14.38;43.61;100278.10;1788722;80;21489;-79
2022/04/30 08:08:42;;;;;;;5.33;2.02;;;;;;;14.52;43.68;100276.71;1788879;80;21112;-81
2022/04/30 08:11:09;;;;;;;5.45;2.20;;;;;;;14.71;44.32;100273.79;1761954;80;20968;-81
2022/04/30 08:13:37;;;;;;;5.65;2.80;;;;;;;14.96;44.61;100276.76;1751730;81;21084;-75
2022/04/30 08:16:09;;;;;;;6.83;3.67;;;;;;;15.16;43.96;100270.20;1751733;81;21538;-76
2022/04/30 08:18:33;;;;;;;9.23;3.70;;;;;;;15.36;43.48;100268.48;1751785;81;20994;-75
2022/04/30 08:21:00;;;;;;;7.33;3.40;;;;;;;15.54;43.01;100263.72;1751948;81;21078;-75
2022/04/30 08:23:26;;;;;;;7.37;3.72;;;;;;;15.64;42.78;100260.68;1751774;81;20955;-76
2022/04/30 08:25:53;;;;;;;7.70;3.50;;;;;;;15.66;43.16;100260.14;1751610;81;21100;-76
2022/04/30 08:28:19;;;;;;;6.00;3.37;;;;;;;15.69;42.20;100263.52;1751992;81;21086;-76
2022/04/30 08:30:46;;;;;;;6.03;3.62;;;;;;;15.69;42.01;100259.54;1751811;81;21049;-75
2022/04/30 08:33:13;;;;;;;10.00;5.15;;;;;;;15.71;41.79;100260.80;1751933;81;21137;-75
2022/04/30 08:35:39;;;;;;;8.45;3.60;;;;;;;15.70;40.11;100253.76;1751714;81;21509;-75
2022/04/30 08:38:06;;;;;;;8.10;3.62;;;;;;;15.61;41.27;100258.53;1752110;81;21046;-75
2022/04/30 08:40:35;;;;;;;10.82;4.42;;;;;;;15.56;41.21;100261.85;1754793;80;21226;-76
2022/04/30 08:43:08;;;;;;;7.05;4.12;;;;;;;15.54;41.40;100256.23;1689757;84;21858;-75
2022/04/30 08:45:36;;;;;;;10.72;5.28;;;;;;;15.56;41.39;100253.05;1701293;84;22323;-76
2022/04/30 08:48:09;;;;;;;10.93;5.20;;;;;;;15.56;42.28;100257.87;1701750;84;21019;-75
2022/04/30 08:50:36;;;;;;;12.68;5.03;;;;;;;15.53;42.28;100258.48;1710204;83;21141;-76
2022/04/30 08:53:03;;;;;;;13.90;5.42;;;;;;;15.55;43.10;100256.17;1722282;83;21593;-75
2022/04/30 08:55:30;;;;;;;9.78;4.85;;;;;;;15.64;43.71;100257.55;1722597;83;21081;-75
2022/04/30 08:57:56;;;;;;;14.90;5.28;;;;;;;15.76;42.47;100253.53;1722304;83;21062;-76
2022/04/30 09:00:23;;;;;;;10.03;4.70;;;;;;;15.73;42.76;100253.63;1722668;83;21082;-75
2022/04/30 09:02:58;;;;;;;8.58;4.10;;;;;;;15.65;43.64;100255.31;1722379;83;21074;-75
2022/04/30 09:05:32;;;;;;;7.03;3.47;;;;;;;15.61;43.68;100254.55;1722548;83;21784;-73
2022/04/30 09:08:00;;;;;;;3.50;2.70;;;;;;;15.59;43.30;100255.09;1722244;83;21027;-73
2022/04/30 09:10:33;;;;;;;4.53;2.87;;;;;;;15.57;43.31;100252.12;1722463;83;21126;-73
2022/04/30 09:13:12;;;;;;;2.25;2.00;;;;;;;15.60;42.95;100256.83;1722399;83;21090;-74
2022/04/30 09:15:39;;;;;;;2.60;2.40;;;;;;;15.65;41.89;100245.14;1722499;83;21063;-75
2022/04/30 09:18:08;;;;;;;2.35;2.10;;;;;;;15.66;42.80;100240.25;1722392;83;21155;-75
2022/04/30 09:20:44;;;;;;;2.90;1.90;;;;;;;15.72;42.84;100241.31;1722140;83;21075;-75
2022/04/30 09:23:10;;;;;;;6.20;1.90;;;;;;;15.77;42.19;100240.20;1722533;83;21186;-75
2022/04/30 09:25:37;;;;;;;2.52;1.77;;;;;;;15.84;41.69;100240.79;1722499;83;22003;-75
2022/04/30 09:28:04;;;;;;;5.20;1.70;;;;;;;15.92;41.37;100239.09;1699733;83;21110;-75
2022/04/30 09:30:33;;;;;;;3.98;2.00;;;;;;;15.96;40.28;100240.70;1722464;83;21136;-75
2022/04/30 09:33:07;;;;;;;2.45;1.92;;;;;;;15.92;41.06;100242.63;1722330;83;21046;-74
2022/04/30 09:38:23;;;;;;;5.10;2.20;;;;;;;16.03;40.52;100233.32;1722583;83;21193;-75
2022/04/30 09:40:57;;;;;;;1.87;1.77;;;;;;;16.14;40.66;100228.39;1722430;83;21142;-75
2022/04/30 09:43:30;;;;;;;1.95;1.60;;;;;;;16.24;39.66;100236.31;1722443;83;20956;-76
2022/04/30 09:46:00;;;;;;;2.27;1.80;;;;;;;16.27;38.20;100235.30;1721951;83;21553;-74
2022/04/30 09:54:00;;;;;;;2.22;1.80;;;;;;;15.89;38.14;100234.80;1725084;83;21126;-74
2022/04/30 09:56:36;;;;;;;3.50;1.72;;;;;;;15.65;36.74;100229.23;1724778;83;21532;-74
2022/04/30 09:59:06;;;;;;;7.53;1.98;;;;;;;15.50;37.44;100228.98;1725153;83;21031;-74
2022/04/30 10:01:35;;;;;;;5.70;2.02;;;;;;;15.42;37.16;100235.09;1724766;83;21055;-74
2022/04/30 10:04:09;;;;;;;2.90;2.17;;;;;;;15.34;37.40;100237.20;1724718;83;21065;-74
2022/04/30 10:06:48;;;;;;;5.65;1.98;;;;;;;15.31;37.13;100237.33;1725009;83;21070;-74
2022/04/30 10:09:24;;;;;;;4.05;1.70;;;;;;;15.24;36.77;100242.88;1755158;81;21150;-75
2022/04/30 10:12:16;;;;;;;3.67;1.85;;;;;;;15.20;37.24;100243.95;1750732;81;21071;-73
2022/04/30 10:15:02;;;;;;;2.47;1.60;;;;;;;15.20;37.28;100239.97;1755584;81;21080;-74
2022/04/30 10:17:34;;;;;;;4.33;1.80;;;;;;;15.18;36.82;100227.25;1755299;81;21010;-74
2022/04/30 10:20:12;;;;;;;8.05;1.75;;;;;;;15.10;36.55;100238.64;1755466;80;21198;-74
2022/04/30 10:22:36;;;;;;;1.87;1.65;;;;;;;15.03;36.14;100242.00;1754868;80;21191;-74
2022/04/30 10:25:04;;;;;;;2.70;1.60;;;;;;;14.95;35.58;100244.58;1755318;81;21067;-74
2022/04/30 10:27:44;;;;;;;4.90;1.57;;;;;;;14.85;35.35;100242.29;1754752;81;21547;-74
2022/04/30 10:30:24;;;;;;;2.02;1.42;;;;;;;14.76;36.12;100245.33;1755200;81;21084;-74
2022/04/30 10:33:03;;;;;;;2.17;1.65;;;;;;;14.65;35.59;100242.23;1755339;81;21088;-74
2022/04/30 10:35:32;;;;;;;3.33;1.57;;;;;;;14.52;34.85;100246.26;1754854;81;21154;-74
2022/04/30 10:38:18;;;;;;;1.80;1.40;;;;;;;14.40;35.88;100247.13;1755370;81;21514;-74
2022/04/30 10:40:49;;;;;;;5.33;2.75;;;;;;;14.36;36.12;100245.53;1754878;81;21040;-73
2022/04/30 10:43:19;;;;;;;8.63;1.62;;;;;;;14.35;36.24;100251.74;1755644;81;21108;-74
2022/04/30 10:45:46;;;;;;;4.80;1.55;;;;;;;14.34;35.74;100248.71;1755389;81;21041;-74
2022/04/30 10:48:13;;;;;;;1.70;1.60;;;;;;;14.26;35.97;100245.49;1755223;81;21104;-74
2022/04/30 10:50:41;;;;;;;5.87;1.52;;;;;;;14.25;36.79;100248.58;1754679;81;21491;-74
2022/04/30 10:53:09;;;;;;;2.83;1.47;;;;;;;14.27;36.61;100248.52;1742186;82;21504;-74
2022/04/30 10:55:36;;;;;;;1.57;1.30;;;;;;;14.25;36.57;100248.58;1741709;82;21119;-74
2022/04/30 10:58:03;;;;;;;4.37;1.80;;;;;;;14.23;35.71;100242.95;1741804;82;21030;-73
2022/04/30 11:00:30;;;;;;;2.72;1.45;;;;;;;14.22;36.01;100247.84;1746392;81;21122;-75
2022/04/30 11:03:09;;;;;;;2.12;1.47;;;;;;;14.21;36.00;100243.02;1726463;83;21069;-74
2022/04/30 11:05:37;;;;;;;6.85;1.90;;;;;;;14.23;35.88;100238.98;1724743;83;21097;-74
2022/04/30 11:08:04;;;;;;;2.33;1.87;;;;;;;14.24;35.54;100245.98;1726816;83;21000;-74
2022/04/30 11:10:32;;;;;;;9.23;2.20;;;;;;;14.27;35.96;100240.58;1714851;83;21088;-74
2022/04/30 11:13:06;;;;;;;3.22;1.40;;;;;;;14.32;36.09;100242.59;1726562;83;21783;-74
2022/04/30 11:15:33;;;;;;;2.25;2.05;;;;;;;14.38;35.75;100245.48;1726890;83;21078;-75
2022/04/30 11:18:00;;;;;;;5.80;3.70;;;;;;;14.40;35.44;100243.63;1726853;83;21060;-75
2022/04/30 11:20:27;;;;;;;4.75;1.80;;;;;;;14.40;35.66;100240.51;1726903;83;21002;-75
2022/04/30 11:22:55;;;;;;;8.23;4.97;;;;;;;14.41;35.33;100243.58;1727076;83;21062;-75
2022/04/30 11:25:23;;;;;;;5.50;5.00;;;;;;;14.42;36.15;100237.33;1726576;83;21862;-76
2022/04/30 11:27:58;;;;;;;6.92;2.52;;;;;;;14.46;35.70;100237.63;1726547;83;21061;-75
2022/04/30 11:30:25;;;;;;;2.08;1.90;;;;;;;14.52;35.61;100236.98;1726995;83;25916;-74
2022/04/30 11:32:53;;;;;;;4.03;1.80;;;;;;;14.57;35.59;100230.58;1727171;83;21058;-74
2022/04/30 11:35:19;;;;;;;3.20;1.67;;;;;;;14.66;35.77;100226.76;1726551;83;21164;-74
2022/04/30 11:37:46;;;;;;;6.85;3.60;;;;;;;14.72;34.57;100229.14;1727074;83;21255;-75
2022/04/30 11:40:13;;;;;;;4.72;3.20;;;;;;;14.75;35.54;100229.02;1726682;83;21058;-75
2022/04/30 11:42:39;;;;;;;6.85;6.00;;;;;;;14.86;36.11;100226.80;1726754;83;21074;-74
2022/04/30 11:45:08;;;;;;;7.75;4.67;;;;;;;14.94;35.95;100226.47;1726857;83;21039;-74
2022/04/30 11:47:36;;;;;;;5.47;4.25;;;;;;;15.03;36.43;100221.28;1726620;83;20998;-74
2022/04/30 11:50:09;;;;;;;4.05;3.65;;;;;;;15.14;36.16;100224.31;1726990;83;21122;-77
2022/04/30 11:52:36;;;;;;;5.57;4.40;;;;;;;15.21;35.57;100223.16;1715175;83;21090;-74
2022/04/30 11:55:07;;;;;;;3.52;2.95;;;;;;;15.20;35.11;100221.89;1726764;83;21550;-74
2022/04/30 11:57:34;;;;;;;5.65;2.45;;;;;;;15.19;34.57;100215.70;1726655;83;21058;-74
2022/04/30 12:00:01;;;;;;;2.95;2.52;;;;;;;15.20;34.35;100210.81;1726766;83;21015;-75
2022/04/30 12:02:29;;;;;;;2.75;2.35;;;;;;;15.26;34.68;100211.48;1746510;82;21170;-74
2022/04/30 12:05:04;;;;;;;5.72;2.67;;;;;;;15.33;34.18;100211.60;1746291;82;21487;-75
2022/04/30 12:07:42;;;;;;;3.27;2.02;;;;;;;15.37;34.11;100207.91;1746727;82;21118;-74
2022/04/30 12:10:23;;;;;;;3.17;1.40;;;;;;;15.47;35.15;100203.92;1746311;82;20993;-74